sensor_id;sensor_type;location;lat;lon;timestamp;temperature;humidity
65374;SHT31;52070;53.760;9.678;2022-10-16T00:00:41;13.56;90.55
65374;SHT31;52070;53.760;9.678;2022-10-16T00:03:08;13.52;90.50
65374;SHT31;52070;53.760;9.678;2022-10-16T00:05:38;13.49;90.52
65374;SHT31;52070;53.760;9.678;2022-10-16T00:08:06;13.50;90.47
65374;SHT31;52070;53.760;9.678;2022-10-16T00:10:35;13.47;90.46
65374;SHT31;52070;53.760;9.678;2022-10-16T00:13:02;13.46;90.49
65374;SHT31;52070;53.760;9.678;2022-10-16T00:15:30;13.46;90.54
65374;SHT31;52070;53.760;9.678;2022-10-16T00:17:57;13.44;90.59
65374;SHT31;52070;53.760;9.678;2022-10-16T00:20:24;13.49;90.51
65374;SHT31;52070;53.760;9.678;2022-10-16T00:22:51;13.46;90.46
65374;SHT31;52070;53.760;9.678;2022-10-16T00:25:18;13.46;90.45
65374;SHT31;52070;53.760;9.678;2022-10-16T00:27:46;13.46;90.30
65374;SHT31;52070;53.760;9.678;2022-10-16T00:30:13;13.50;90.26
65374;SHT31;52070;53.760;9.678;2022-10-16T00:32:40;13.52;90.21
65374;SHT31;52070;53.760;9.678;2022-10-16T00:35:07;13.52;90.15
65374;SHT31;52070;53.760;9.678;2022-10-16T00:37:34;13.49;90.04
65374;SHT31;52070;53.760;9.678;2022-10-16T00:40:01;13.44;90.04
65374;SHT31;52070;53.760;9.678;2022-10-16T00:42:28;13.46;89.84
65374;SHT31;52070;53.760;9.678;2022-10-16T00:44:57;13.50;89.68
65374;SHT31;52070;53.760;9.678;2022-10-16T00:47:27;13.49;89.63
65374;SHT31;52070;53.760;9.678;2022-10-16T00:49:59;13.47;89.58
65374;SHT31;52070;53.760;9.678;2022-10-16T00:52:26;13.46;89.35
65374;SHT31;52070;53.760;9.678;2022-10-16T00:54:54;13.47;89.25
65374;SHT31;52070;53.760;9.678;2022-10-16T00:57:22;13.46;88.91
65374;SHT31;52070;53.760;9.678;2022-10-16T00:59:49;13.43;88.83
65374;SHT31;52070;53.760;9.678;2022-10-16T01:02:18;13.44;88.51
65374;SHT31;52070;53.760;9.678;2022-10-16T01:04:47;13.44;88.24
65374;SHT31;52070;53.760;9.678;2022-10-16T01:07:22;13.46;87.75
65374;SHT31;52070;53.760;9.678;2022-10-16T01:10:02;13.49;87.71
65374;SHT31;52070;53.760;9.678;2022-10-16T01:12:38;13.44;87.47
65374;SHT31;52070;53.760;9.678;2022-10-16T01:15:12;13.44;87.27
65374;SHT31;52070;53.760;9.678;2022-10-16T01:17:48;13.44;87.29
65374;SHT31;52070;53.760;9.678;2022-10-16T01:20:22;13.42;86.93
65374;SHT31;52070;53.760;9.678;2022-10-16T01:23:02;13.39;86.61
65374;SHT31;52070;53.760;9.678;2022-10-16T01:25:39;13.38;86.61
65374;SHT31;52070;53.760;9.678;2022-10-16T01:28:13;13.39;86.43
65374;SHT31;52070;53.760;9.678;2022-10-16T01:30:42;13.38;86.39
65374;SHT31;52070;53.760;9.678;2022-10-16T01:33:15;13.36;86.32
65374;SHT31;52070;53.760;9.678;2022-10-16T01:35:46;13.35;86.15
65374;SHT31;52070;53.760;9.678;2022-10-16T01:38:17;13.30;86.20
65374;SHT31;52070;53.760;9.678;2022-10-16T01:40:47;13.24;86.47
65374;SHT31;52070;53.760;9.678;2022-10-16T01:43:20;13.23;86.00
65374;SHT31;52070;53.760;9.678;2022-10-16T01:45:49;13.23;86.18
65374;SHT31;52070;53.760;9.678;2022-10-16T01:48:18;13.18;86.12
65374;SHT31;52070;53.760;9.678;2022-10-16T01:50:51;13.18;85.89
65374;SHT31;52070;53.760;9.678;2022-10-16T01:53:19;13.20;85.94
65374;SHT31;52070;53.760;9.678;2022-10-16T01:55:47;13.15;86.20
65374;SHT31;52070;53.760;9.678;2022-10-16T01:58:15;13.09;86.34
65374;SHT31;52070;53.760;9.678;2022-10-16T02:00:45;13.03;86.42
65374;SHT31;52070;53.760;9.678;2022-10-16T02:03:16;13.03;86.14
65374;SHT31;52070;53.760;9.678;2022-10-16T02:05:46;13.00;86.16
65374;SHT31;52070;53.760;9.678;2022-10-16T02:08:13;12.99;86.22
65374;SHT31;52070;53.760;9.678;2022-10-16T02:10:40;12.99;86.16
65374;SHT31;52070;53.760;9.678;2022-10-16T02:13:09;12.96;86.18
65374;SHT31;52070;53.760;9.678;2022-10-16T02:15:37;12.96;86.05
65374;SHT31;52070;53.760;9.678;2022-10-16T02:18:06;12.95;85.84
65374;SHT31;52070;53.760;9.678;2022-10-16T02:20:37;12.95;85.96
65374;SHT31;52070;53.760;9.678;2022-10-16T02:23:06;12.96;85.86
65374;SHT31;52070;53.760;9.678;2022-10-16T02:25:37;12.89;85.94
65374;SHT31;52070;53.760;9.678;2022-10-16T02:28:09;12.91;85.85
65374;SHT31;52070;53.760;9.678;2022-10-16T02:30:41;12.87;85.99
65374;SHT31;52070;53.760;9.678;2022-10-16T02:33:10;12.87;85.88
65374;SHT31;52070;53.760;9.678;2022-10-16T02:35:40;12.89;85.76
65374;SHT31;52070;53.760;9.678;2022-10-16T02:38:09;12.82;85.95
65374;SHT31;52070;53.760;9.678;2022-10-16T02:40:36;12.82;85.91
65374;SHT31;52070;53.760;9.678;2022-10-16T02:43:04;12.79;85.82
65374;SHT31;52070;53.760;9.678;2022-10-16T02:45:32;12.79;85.83
65374;SHT31;52070;53.760;9.678;2022-10-16T02:47:59;12.77;85.72
65374;SHT31;52070;53.760;9.678;2022-10-16T02:50:27;12.74;85.72
65374;SHT31;52070;53.760;9.678;2022-10-16T02:52:54;12.71;85.73
65374;SHT31;52070;53.760;9.678;2022-10-16T02:55:21;12.71;85.89
65374;SHT31;52070;53.760;9.678;2022-10-16T02:57:48;12.71;85.66
65374;SHT31;52070;53.760;9.678;2022-10-16T03:00:16;12.65;85.77
65374;SHT31;52070;53.760;9.678;2022-10-16T03:02:44;12.64;85.82
65374;SHT31;52070;53.760;9.678;2022-10-16T03:05:11;12.62;85.85
65374;SHT31;52070;53.760;9.678;2022-10-16T03:07:39;12.57;85.94
65374;SHT31;52070;53.760;9.678;2022-10-16T03:10:07;12.57;85.88
65374;SHT31;52070;53.760;9.678;2022-10-16T03:12:34;12.57;85.79
65374;SHT31;52070;53.760;9.678;2022-10-16T03:15:01;12.52;85.85
65374;SHT31;52070;53.760;9.678;2022-10-16T03:17:28;12.54;85.95
65374;SHT31;52070;53.760;9.678;2022-10-16T03:19:55;12.51;85.97
65374;SHT31;52070;53.760;9.678;2022-10-16T03:22:21;12.52;86.00
65374;SHT31;52070;53.760;9.678;2022-10-16T03:24:50;12.47;86.04
65374;SHT31;52070;53.760;9.678;2022-10-16T03:27:17;12.48;86.16
65374;SHT31;52070;53.760;9.678;2022-10-16T03:29:44;12.48;86.10
65374;SHT31;52070;53.760;9.678;2022-10-16T03:32:10;12.49;85.79
65374;SHT31;52070;53.760;9.678;2022-10-16T03:34:37;12.49;85.96
65374;SHT31;52070;53.760;9.678;2022-10-16T03:37:04;12.48;85.98
65374;SHT31;52070;53.760;9.678;2022-10-16T03:39:31;12.47;86.05
65374;SHT31;52070;53.760;9.678;2022-10-16T03:42:00;12.47;85.86
65374;SHT31;52070;53.760;9.678;2022-10-16T03:44:26;12.45;86.10
65374;SHT31;52070;53.760;9.678;2022-10-16T03:46:53;12.42;86.03
65374;SHT31;52070;53.760;9.678;2022-10-16T03:49:20;12.42;85.99
65374;SHT31;52070;53.760;9.678;2022-10-16T03:51:47;12.42;85.97
65374;SHT31;52070;53.760;9.678;2022-10-16T03:54:14;12.41;86.03
65374;SHT31;52070;53.760;9.678;2022-10-16T03:56:41;12.38;86.16
65374;SHT31;52070;53.760;9.678;2022-10-16T03:59:09;12.34;86.24
65374;SHT31;52070;53.760;9.678;2022-10-16T04:01:36;12.33;86.30
65374;SHT31;52070;53.760;9.678;2022-10-16T04:04:03;12.31;86.22
65374;SHT31;52070;53.760;9.678;2022-10-16T04:06:30;12.31;86.36
65374;SHT31;52070;53.760;9.678;2022-10-16T04:08:57;12.28;86.29
65374;SHT31;52070;53.760;9.678;2022-10-16T04:11:23;12.30;86.12
65374;SHT31;52070;53.760;9.678;2022-10-16T04:13:50;12.30;86.10
65374;SHT31;52070;53.760;9.678;2022-10-16T04:16:18;12.33;85.99
65374;SHT31;52070;53.760;9.678;2022-10-16T04:18:45;12.31;85.85
65374;SHT31;52070;53.760;9.678;2022-10-16T04:21:12;12.27;86.09
65374;SHT31;52070;53.760;9.678;2022-10-16T04:23:39;12.24;86.18
65374;SHT31;52070;53.760;9.678;2022-10-16T04:26:06;12.23;86.24
65374;SHT31;52070;53.760;9.678;2022-10-16T04:28:33;12.23;86.06
65374;SHT31;52070;53.760;9.678;2022-10-16T04:31:00;12.24;86.01
65374;SHT31;52070;53.760;9.678;2022-10-16T04:33:31;12.25;86.15
65374;SHT31;52070;53.760;9.678;2022-10-16T04:35:58;12.27;86.10
65374;SHT31;52070;53.760;9.678;2022-10-16T04:38:26;12.24;86.10
65374;SHT31;52070;53.760;9.678;2022-10-16T04:40:53;12.24;86.03
65374;SHT31;52070;53.760;9.678;2022-10-16T04:43:20;12.28;85.99
65374;SHT31;52070;53.760;9.678;2022-10-16T04:45:47;12.33;85.97
65374;SHT31;52070;53.760;9.678;2022-10-16T04:48:16;12.31;85.86
65374;SHT31;52070;53.760;9.678;2022-10-16T04:50:44;12.31;86.03
65374;SHT31;52070;53.760;9.678;2022-10-16T04:53:11;12.35;85.84
65374;SHT31;52070;53.760;9.678;2022-10-16T04:55:38;12.38;85.86
65374;SHT31;52070;53.760;9.678;2022-10-16T04:58:05;12.42;85.88
65374;SHT31;52070;53.760;9.678;2022-10-16T05:00:32;12.42;85.60
65374;SHT31;52070;53.760;9.678;2022-10-16T05:02:59;12.47;85.43
65374;SHT31;52070;53.760;9.678;2022-10-16T05:05:26;12.45;85.46
65374;SHT31;52070;53.760;9.678;2022-10-16T05:07:54;12.47;85.54
65374;SHT31;52070;53.760;9.678;2022-10-16T05:10:21;12.51;85.35
65374;SHT31;52070;53.760;9.678;2022-10-16T05:12:48;12.52;85.47
65374;SHT31;52070;53.760;9.678;2022-10-16T05:15:15;12.51;85.33
65374;SHT31;52070;53.760;9.678;2022-10-16T05:17:42;12.51;85.37
65374;SHT31;52070;53.760;9.678;2022-10-16T05:20:09;12.55;85.48
65374;SHT31;52070;53.760;9.678;2022-10-16T05:22:36;12.52;85.23
65374;SHT31;52070;53.760;9.678;2022-10-16T05:25:05;12.54;85.35
65374;SHT31;52070;53.760;9.678;2022-10-16T05:27:32;12.57;85.16
65374;SHT31;52070;53.760;9.678;2022-10-16T05:29:59;12.57;85.24
65374;SHT31;52070;53.760;9.678;2022-10-16T05:32:26;12.62;85.18
65374;SHT31;52070;53.760;9.678;2022-10-16T05:34:53;12.59;85.34
65374;SHT31;52070;53.760;9.678;2022-10-16T05:37:20;12.55;85.37
65374;SHT31;52070;53.760;9.678;2022-10-16T05:39:47;12.58;85.42
65374;SHT31;52070;53.760;9.678;2022-10-16T05:42:15;12.55;85.38
65374;SHT31;52070;53.760;9.678;2022-10-16T05:44:42;12.55;85.49
65374;SHT31;52070;53.760;9.678;2022-10-16T05:47:09;12.58;85.43
65374;SHT31;52070;53.760;9.678;2022-10-16T05:49:36;12.55;85.62
65374;SHT31;52070;53.760;9.678;2022-10-16T05:52:03;12.52;85.82
65374;SHT31;52070;53.760;9.678;2022-10-16T05:54:30;12.52;86.21
65374;SHT31;52070;53.760;9.678;2022-10-16T05:56:57;12.55;86.13
65374;SHT31;52070;53.760;9.678;2022-10-16T05:59:25;12.54;86.09
65374;SHT31;52070;53.760;9.678;2022-10-16T06:01:52;12.52;86.21
65374;SHT31;52070;53.760;9.678;2022-10-16T06:04:19;12.52;86.50
65374;SHT31;52070;53.760;9.678;2022-10-16T06:06:46;12.54;86.48
65374;SHT31;52070;53.760;9.678;2022-10-16T06:09:14;12.52;86.52
65374;SHT31;52070;53.760;9.678;2022-10-16T06:11:41;12.52;86.62
65374;SHT31;52070;53.760;9.678;2022-10-16T06:14:08;12.51;86.71
65374;SHT31;52070;53.760;9.678;2022-10-16T06:16:39;12.54;86.79
65374;SHT31;52070;53.760;9.678;2022-10-16T06:19:09;12.58;86.68
65374;SHT31;52070;53.760;9.678;2022-10-16T06:21:36;12.57;86.79
65374;SHT31;52070;53.760;9.678;2022-10-16T06:24:03;12.58;87.03
65374;SHT31;52070;53.760;9.678;2022-10-16T06:26:31;12.59;86.97
65374;SHT31;52070;53.760;9.678;2022-10-16T06:28:59;12.64;86.92
65374;SHT31;52070;53.760;9.678;2022-10-16T06:31:26;12.64;87.06
65374;SHT31;52070;53.760;9.678;2022-10-16T06:33:57;12.68;86.96
65374;SHT31;52070;53.760;9.678;2022-10-16T06:36:25;12.68;86.94
65374;SHT31;52070;53.760;9.678;2022-10-16T06:38:52;12.69;87.00
65374;SHT31;52070;53.760;9.678;2022-10-16T06:41:21;12.71;86.98
65374;SHT31;52070;53.760;9.678;2022-10-16T06:43:48;12.77;87.13
65374;SHT31;52070;53.760;9.678;2022-10-16T06:46:18;12.79;86.99
65374;SHT31;52070;53.760;9.678;2022-10-16T06:48:45;12.85;86.94
65374;SHT31;52070;53.760;9.678;2022-10-16T06:51:15;12.85;86.93
65374;SHT31;52070;53.760;9.678;2022-10-16T06:53:44;12.95;86.92
65374;SHT31;52070;53.760;9.678;2022-10-16T06:56:13;12.96;87.09
65374;SHT31;52070;53.760;9.678;2022-10-16T06:58:40;12.96;86.98
65374;SHT31;52070;53.760;9.678;2022-10-16T07:01:08;13.03;86.95
65374;SHT31;52070;53.760;9.678;2022-10-16T07:03:36;13.05;87.07
65374;SHT31;52070;53.760;9.678;2022-10-16T07:06:05;13.05;87.08
65374;SHT31;52070;53.760;9.678;2022-10-16T07:08:34;13.10;87.03
65374;SHT31;52070;53.760;9.678;2022-10-16T07:11:02;13.10;87.05
65374;SHT31;52070;53.760;9.678;2022-10-16T07:13:30;13.13;86.98
65374;SHT31;52070;53.760;9.678;2022-10-16T07:16:04;13.16;87.13
65374;SHT31;52070;53.760;9.678;2022-10-16T07:18:31;13.22;87.24
65374;SHT31;52070;53.760;9.678;2022-10-16T07:21:03;13.23;86.95
65374;SHT31;52070;53.760;9.678;2022-10-16T07:23:30;13.24;87.01
65374;SHT31;52070;53.760;9.678;2022-10-16T07:25:58;13.23;87.04
65374;SHT31;52070;53.760;9.678;2022-10-16T07:28:25;13.22;87.06
65374;SHT31;52070;53.760;9.678;2022-10-16T07:30:52;13.19;87.22
65374;SHT31;52070;53.760;9.678;2022-10-16T07:33:19;13.19;87.33
65374;SHT31;52070;53.760;9.678;2022-10-16T07:35:50;13.20;87.43
65374;SHT31;52070;53.760;9.678;2022-10-16T07:38:17;13.23;87.50
65374;SHT31;52070;53.760;9.678;2022-10-16T07:40:44;13.24;87.42
65374;SHT31;52070;53.760;9.678;2022-10-16T07:43:13;13.33;87.49
65374;SHT31;52070;53.760;9.678;2022-10-16T07:45:46;13.32;87.44
65374;SHT31;52070;53.760;9.678;2022-10-16T07:48:14;13.39;87.57
65374;SHT31;52070;53.760;9.678;2022-10-16T07:50:41;13.46;87.40
65374;SHT31;52070;53.760;9.678;2022-10-16T07:53:09;13.54;87.07
65374;SHT31;52070;53.760;9.678;2022-10-16T07:55:36;13.57;87.21
65374;SHT31;52070;53.760;9.678;2022-10-16T07:58:04;13.69;86.91
65374;SHT31;52070;53.760;9.678;2022-10-16T08:00:32;13.73;86.94
65374;SHT31;52070;53.760;9.678;2022-10-16T08:03:00;13.81;86.38
65374;SHT31;52070;53.760;9.678;2022-10-16T08:05:27;13.87;86.39
65374;SHT31;52070;53.760;9.678;2022-10-16T08:07:54;13.95;86.09
65374;SHT31;52070;53.760;9.678;2022-10-16T08:10:23;14.00;86.23
65374;SHT31;52070;53.760;9.678;2022-10-16T08:12:51;14.04;85.79
65374;SHT31;52070;53.760;9.678;2022-10-16T08:15:25;14.13;85.30
65374;SHT31;52070;53.760;9.678;2022-10-16T08:17:58;14.18;85.31
65374;SHT31;52070;53.760;9.678;2022-10-16T08:20:26;14.18;85.43
65374;SHT31;52070;53.760;9.678;2022-10-16T08:22:53;14.25;84.91
65374;SHT31;52070;53.760;9.678;2022-10-16T08:25:21;14.34;84.87
65374;SHT31;52070;53.760;9.678;2022-10-16T08:27:48;14.41;85.12
65374;SHT31;52070;53.760;9.678;2022-10-16T08:30:15;14.42;84.57
65374;SHT31;52070;53.760;9.678;2022-10-16T08:32:42;14.42;84.25
65374;SHT31;52070;53.760;9.678;2022-10-16T08:35:12;14.49;84.53
65374;SHT31;52070;53.760;9.678;2022-10-16T08:37:39;14.58;84.07
65374;SHT31;52070;53.760;9.678;2022-10-16T08:40:16;14.62;84.06
65374;SHT31;52070;53.760;9.678;2022-10-16T08:43:00;14.68;83.95
65374;SHT31;52070;53.760;9.678;2022-10-16T08:45:40;14.68;83.93
65374;SHT31;52070;53.760;9.678;2022-10-16T08:48:18;14.78;84.00
65374;SHT31;52070;53.760;9.678;2022-10-16T08:50:49;14.82;83.86
65374;SHT31;52070;53.760;9.678;2022-10-16T08:53:20;14.82;83.72
65374;SHT31;52070;53.760;9.678;2022-10-16T08:55:51;14.82;83.76
65374;SHT31;52070;53.760;9.678;2022-10-16T08:58:20;14.86;83.30
65374;SHT31;52070;53.760;9.678;2022-10-16T09:00:50;14.86;83.91
65374;SHT31;52070;53.760;9.678;2022-10-16T09:03:36;14.96;82.82
65374;SHT31;52070;53.760;9.678;2022-10-16T09:06:13;15.00;82.86
65374;SHT31;52070;53.760;9.678;2022-10-16T09:08:51;15.02;83.09
65374;SHT31;52070;53.760;9.678;2022-10-16T09:11:33;15.02;83.05
65374;SHT31;52070;53.760;9.678;2022-10-16T09:14:07;15.10;82.46
65374;SHT31;52070;53.760;9.678;2022-10-16T09:16:42;15.18;82.18
65374;SHT31;52070;53.760;9.678;2022-10-16T09:19:17;15.22;82.10
65374;SHT31;52070;53.760;9.678;2022-10-16T09:21:48;15.27;82.35
65374;SHT31;52070;53.760;9.678;2022-10-16T09:24:17;15.36;81.84
65374;SHT31;52070;53.760;9.678;2022-10-16T09:26:46;15.47;81.54
65374;SHT31;52070;53.760;9.678;2022-10-16T09:29:13;15.53;81.05
65374;SHT31;52070;53.760;9.678;2022-10-16T09:31:41;15.60;80.37
65374;SHT31;52070;53.760;9.678;2022-10-16T09:34:14;15.70;80.99
65374;SHT31;52070;53.760;9.678;2022-10-16T09:36:47;15.85;79.86
65374;SHT31;52070;53.760;9.678;2022-10-16T09:39:14;16.05;79.38
65374;SHT31;52070;53.760;9.678;2022-10-16T09:41:43;16.21;78.24
65374;SHT31;52070;53.760;9.678;2022-10-16T09:44:19;16.26;78.12
65374;SHT31;52070;53.760;9.678;2022-10-16T09:46:48;16.32;78.52
65374;SHT31;52070;53.760;9.678;2022-10-16T09:49:21;16.15;77.44
65374;SHT31;52070;53.760;9.678;2022-10-16T09:51:50;16.15;78.74
65374;SHT31;52070;53.760;9.678;2022-10-16T09:54:20;16.12;78.71
65374;SHT31;52070;53.760;9.678;2022-10-16T09:56:48;16.15;78.41
65374;SHT31;52070;53.760;9.678;2022-10-16T09:59:19;16.14;78.54
65374;SHT31;52070;53.760;9.678;2022-10-16T10:01:48;16.25;79.03
65374;SHT31;52070;53.760;9.678;2022-10-16T10:04:15;16.28;77.79
65374;SHT31;52070;53.760;9.678;2022-10-16T10:06:44;16.35;78.74
65374;SHT31;52070;53.760;9.678;2022-10-16T10:09:21;16.48;77.66
65374;SHT31;52070;53.760;9.678;2022-10-16T10:11:52;16.59;77.05
65374;SHT31;52070;53.760;9.678;2022-10-16T10:14:28;16.63;76.65
65374;SHT31;52070;53.760;9.678;2022-10-16T10:17:11;16.76;75.90
65374;SHT31;52070;53.760;9.678;2022-10-16T10:19:41;16.77;76.08
65374;SHT31;52070;53.760;9.678;2022-10-16T10:22:24;16.59;75.51
65374;SHT31;52070;53.760;9.678;2022-10-16T10:24:57;16.48;76.05
65374;SHT31;52070;53.760;9.678;2022-10-16T10:27:32;16.69;76.21
65374;SHT31;52070;53.760;9.678;2022-10-16T10:30:08;16.87;75.34
65374;SHT31;52070;53.760;9.678;2022-10-16T10:32:45;16.90;73.22
65374;SHT31;52070;53.760;9.678;2022-10-16T10:35:19;17.14;73.20
65374;SHT31;52070;53.760;9.678;2022-10-16T10:38:03;17.32;73.30
65374;SHT31;52070;53.760;9.678;2022-10-16T10:40:45;17.58;71.98
65374;SHT31;52070;53.760;9.678;2022-10-16T10:43:25;17.84;71.26
65374;SHT31;52070;53.760;9.678;2022-10-16T10:45:58;17.79;69.87
65374;SHT31;52070;53.760;9.678;2022-10-16T10:48:41;17.96;70.11
65374;SHT31;52070;53.760;9.678;2022-10-16T10:51:20;18.17;70.35
65374;SHT31;52070;53.760;9.678;2022-10-16T10:53:55;18.01;68.66
65374;SHT31;52070;53.760;9.678;2022-10-16T10:56:41;18.36;69.10
65374;SHT31;52070;53.760;9.678;2022-10-16T10:59:30;18.66;66.63
65374;SHT31;52070;53.760;9.678;2022-10-16T11:02:00;18.74;67.12
65374;SHT31;52070;53.760;9.678;2022-10-16T11:04:47;18.81;65.86
65374;SHT31;52070;53.760;9.678;2022-10-16T11:07:19;17.96;67.35
65374;SHT31;52070;53.760;9.678;2022-10-16T11:09:49;17.74;69.04
65374;SHT31;52070;53.760;9.678;2022-10-16T11:12:21;17.61;68.99
65374;SHT31;52070;53.760;9.678;2022-10-16T11:14:55;17.26;70.00
65374;SHT31;52070;53.760;9.678;2022-10-16T11:17:26;17.74;71.10
65374;SHT31;52070;53.760;9.678;2022-10-16T11:19:58;17.67;70.05
65374;SHT31;52070;53.760;9.678;2022-10-16T11:22:32;17.52;69.99
65374;SHT31;52070;53.760;9.678;2022-10-16T11:25:04;17.45;69.62
65374;SHT31;52070;53.760;9.678;2022-10-16T11:27:41;17.23;70.52
65374;SHT31;52070;53.760;9.678;2022-10-16T11:30:15;17.00;71.31
65374;SHT31;52070;53.760;9.678;2022-10-16T11:32:50;16.97;72.02
65374;SHT31;52070;53.760;9.678;2022-10-16T11:35:22;17.02;71.60
65374;SHT31;52070;53.760;9.678;2022-10-16T11:37:53;16.96;72.50
65374;SHT31;52070;53.760;9.678;2022-10-16T11:40:25;16.93;72.07
65374;SHT31;52070;53.760;9.678;2022-10-16T11:42:58;17.09;72.07
65374;SHT31;52070;53.760;9.678;2022-10-16T11:45:30;17.07;70.96
65374;SHT31;52070;53.760;9.678;2022-10-16T11:48:02;16.94;70.63
65374;SHT31;52070;53.760;9.678;2022-10-16T11:50:34;16.79;69.76
65374;SHT31;52070;53.760;9.678;2022-10-16T11:53:13;17.09;68.02
65374;SHT31;52070;53.760;9.678;2022-10-16T11:55:43;17.00;67.17
65374;SHT31;52070;53.760;9.678;2022-10-16T11:58:19;16.86;67.86
65374;SHT31;52070;53.760;9.678;2022-10-16T12:00:55;17.37;67.37
65374;SHT31;52070;53.760;9.678;2022-10-16T12:03:27;17.98;66.98
65374;SHT31;52070;53.760;9.678;2022-10-16T12:06:06;17.68;65.87
65374;SHT31;52070;53.760;9.678;2022-10-16T12:08:38;17.44;66.86
65374;SHT31;52070;53.760;9.678;2022-10-16T12:11:08;17.48;67.05
65374;SHT31;52070;53.760;9.678;2022-10-16T12:13:39;18.02;66.04
65374;SHT31;52070;53.760;9.678;2022-10-16T12:16:18;18.39;64.72
65374;SHT31;52070;53.760;9.678;2022-10-16T12:18:47;18.70;63.89
65374;SHT31;52070;53.760;9.678;2022-10-16T12:21:16;18.86;62.56
65374;SHT31;52070;53.760;9.678;2022-10-16T12:23:49;19.01;62.04
65374;SHT31;52070;53.760;9.678;2022-10-16T12:26:24;19.11;61.66
65374;SHT31;52070;53.760;9.678;2022-10-16T12:28:53;19.10;61.73
65374;SHT31;52070;53.760;9.678;2022-10-16T12:31:21;19.12;60.67
65374;SHT31;52070;53.760;9.678;2022-10-16T12:33:57;18.98;60.40
65374;SHT31;52070;53.760;9.678;2022-10-16T12:36:29;19.18;61.02
65374;SHT31;52070;53.760;9.678;2022-10-16T12:38:58;18.90;60.92
65374;SHT31;52070;53.760;9.678;2022-10-16T12:41:27;18.39;62.16
65374;SHT31;52070;53.760;9.678;2022-10-16T12:43:56;17.52;64.37
65374;SHT31;52070;53.760;9.678;2022-10-16T12:46:34;17.20;62.01
65374;SHT31;52070;53.760;9.678;2022-10-16T12:49:14;17.07;62.33
65374;SHT31;52070;53.760;9.678;2022-10-16T12:51:46;17.14;61.67
65374;SHT31;52070;53.760;9.678;2022-10-16T12:54:15;17.68;61.25
65374;SHT31;52070;53.760;9.678;2022-10-16T12:56:51;18.21;59.90
65374;SHT31;52070;53.760;9.678;2022-10-16T12:59:31;18.30;58.15
65374;SHT31;52070;53.760;9.678;2022-10-16T13:02:16;18.56;60.11
65374;SHT31;52070;53.760;9.678;2022-10-16T13:04:59;18.46;61.18
65374;SHT31;52070;53.760;9.678;2022-10-16T13:07:48;17.82;61.97
65374;SHT31;52070;53.760;9.678;2022-10-16T13:10:25;17.34;64.27
65374;SHT31;52070;53.760;9.678;2022-10-16T13:13:05;17.04;64.70
65374;SHT31;52070;53.760;9.678;2022-10-16T13:15:51;16.81;65.30
65374;SHT31;52070;53.760;9.678;2022-10-16T13:18:25;17.27;64.12
65374;SHT31;52070;53.760;9.678;2022-10-16T13:21:11;17.71;63.16
65374;SHT31;52070;53.760;9.678;2022-10-16T13:23:48;17.99;62.52
65374;SHT31;52070;53.760;9.678;2022-10-16T13:26:26;18.45;63.26
65374;SHT31;52070;53.760;9.678;2022-10-16T13:28:59;18.63;60.42
65374;SHT31;52070;53.760;9.678;2022-10-16T13:31:28;18.94;59.06
65374;SHT31;52070;53.760;9.678;2022-10-16T13:33:58;18.78;58.28
65374;SHT31;52070;53.760;9.678;2022-10-16T13:36:28;18.63;58.40
65374;SHT31;52070;53.760;9.678;2022-10-16T13:39:00;18.26;59.76
65374;SHT31;52070;53.760;9.678;2022-10-16T13:41:27;17.92;61.16
65374;SHT31;52070;53.760;9.678;2022-10-16T13:43:56;18.05;60.17
65374;SHT31;52070;53.760;9.678;2022-10-16T13:46:24;18.22;60.88
65374;SHT31;52070;53.760;9.678;2022-10-16T13:49:00;18.50;60.49
65374;SHT31;52070;53.760;9.678;2022-10-16T13:51:28;17.98;60.05
65374;SHT31;52070;53.760;9.678;2022-10-16T13:53:56;17.48;60.88
65374;SHT31;52070;53.760;9.678;2022-10-16T13:56:26;17.23;61.52
65374;SHT31;52070;53.760;9.678;2022-10-16T13:58:58;17.07;62.07
65374;SHT31;52070;53.760;9.678;2022-10-16T14:01:27;17.26;62.85
65374;SHT31;52070;53.760;9.678;2022-10-16T14:04:01;17.21;62.33
65374;SHT31;52070;53.760;9.678;2022-10-16T14:06:29;17.19;63.33
65374;SHT31;52070;53.760;9.678;2022-10-16T14:08:59;17.16;62.95
65374;SHT31;52070;53.760;9.678;2022-10-16T14:11:28;17.06;63.83
65374;SHT31;52070;53.760;9.678;2022-10-16T14:13:55;17.11;63.75
65374;SHT31;52070;53.760;9.678;2022-10-16T14:16:25;17.44;63.20
65374;SHT31;52070;53.760;9.678;2022-10-16T14:18:56;17.60;62.08
65374;SHT31;52070;53.760;9.678;2022-10-16T14:21:25;17.61;61.40
65374;SHT31;52070;53.760;9.678;2022-10-16T14:23:53;17.62;61.70
65374;SHT31;52070;53.760;9.678;2022-10-16T14:26:23;17.57;62.05
65374;SHT31;52070;53.760;9.678;2022-10-16T14:29:03;17.72;62.16
65374;SHT31;52070;53.760;9.678;2022-10-16T14:31:32;17.85;61.13
65374;SHT31;52070;53.760;9.678;2022-10-16T14:34:01;17.95;61.00
65374;SHT31;52070;53.760;9.678;2022-10-16T14:36:30;18.05;61.09
65374;SHT31;52070;53.760;9.678;2022-10-16T14:39:03;18.21;61.59
65374;SHT31;52070;53.760;9.678;2022-10-16T14:41:32;18.32;61.24
65374;SHT31;52070;53.760;9.678;2022-10-16T14:44:02;18.25;60.87
65374;SHT31;52070;53.760;9.678;2022-10-16T14:46:33;17.96;59.80
65374;SHT31;52070;53.760;9.678;2022-10-16T14:49:04;18.06;61.22
65374;SHT31;52070;53.760;9.678;2022-10-16T14:51:42;18.10;59.85
65374;SHT31;52070;53.760;9.678;2022-10-16T14:54:10;18.15;59.26
65374;SHT31;52070;53.760;9.678;2022-10-16T14:56:45;18.13;59.21
65374;SHT31;52070;53.760;9.678;2022-10-16T14:59:15;17.99;58.55
65374;SHT31;52070;53.760;9.678;2022-10-16T15:01:43;18.03;59.62
65374;SHT31;52070;53.760;9.678;2022-10-16T15:04:12;18.06;59.70
65374;SHT31;52070;53.760;9.678;2022-10-16T15:06:40;17.92;60.09
65374;SHT31;52070;53.760;9.678;2022-10-16T15:09:07;17.77;61.10
65374;SHT31;52070;53.760;9.678;2022-10-16T15:11:34;17.77;61.43
65374;SHT31;52070;53.760;9.678;2022-10-16T15:14:01;17.65;61.56
65374;SHT31;52070;53.760;9.678;2022-10-16T15:16:29;17.51;61.35
65374;SHT31;52070;53.760;9.678;2022-10-16T15:18:56;17.50;62.82
65374;SHT31;52070;53.760;9.678;2022-10-16T15:21:25;17.37;63.40
65374;SHT31;52070;53.760;9.678;2022-10-16T15:23:55;17.13;62.88
65374;SHT31;52070;53.760;9.678;2022-10-16T15:26:23;16.89;63.89
65374;SHT31;52070;53.760;9.678;2022-10-16T15:28:50;16.81;64.82
65374;SHT31;52070;53.760;9.678;2022-10-16T15:31:18;16.69;65.24
65374;SHT31;52070;53.760;9.678;2022-10-16T15:33:45;16.62;65.59
65374;SHT31;52070;53.760;9.678;2022-10-16T15:36:24;16.45;65.13
65374;SHT31;52070;53.760;9.678;2022-10-16T15:38:51;16.30;66.15
65374;SHT31;52070;53.760;9.678;2022-10-16T15:41:20;16.22;66.41
65374;SHT31;52070;53.760;9.678;2022-10-16T15:43:48;16.12;66.77
65374;SHT31;52070;53.760;9.678;2022-10-16T15:46:18;16.04;67.71
65374;SHT31;52070;53.760;9.678;2022-10-16T15:48:46;15.95;67.53